Latest Weather Observations for Whyalla

IDS60801

Issued at 4:31 am CDT Thursday 29 January 2015 (issued every 30 minutes, with the page automatically refreshed every 10 minutes)

About weather observations | Map of weather stations | Latest weather observations for SA | Other Formats
Station Details ID: 018120 Name: WHYALLA AERO Lat: -33.05 Lon: 137.52 Height: 6.5 m
Data from the previous 72 hours. | See also: Recent months at Whyalla
Date/Time
CDT
Temp
°C
App
Temp
°C
Dew
Point
Rel
Hum
%
Delta-T
°C
Wind Press
QNH
hPa
Press
MSL
hPa
Rain
since 9 am
mm
Dir
 
Spd
km/h
Gust
km/h
Spd
kts
Gust
kts
29/04:30am 18.5 17.0 15.4 82 1.8 S 17 24 9 13 1014.0 1013.9 0.0
29/04:00am 18.6 17.3 15.7 83 1.7 S 17 22 9 12 1014.1 1014.0 0.0
29/03:30am 18.7 17.2 15.4 81 1.9 S 17 22 9 12 1014.1 1014.0 0.0
29/03:00am 18.5 17.7 15.2 81 1.9 S 13 19 7 10 1014.2 1014.1 0.0
29/02:30am 18.3 16.9 14.4 78 2.2 S 15 19 8 10 1014.4 1014.3 0.0
29/02:00am 19.0 17.5 14.1 73 2.8 SSE 15 22 8 12 1014.6 1014.5 0.0
29/01:30am 19.3 17.9 14.6 74 2.7 SSE 15 24 8 13 1014.6 1014.5 0.0
29/01:00am 19.6 18.4 15.0 75 2.7 SSE 15 20 8 11 1014.9 1014.8 0.0
29/12:30am 19.3 18.3 15.6 79 2.2 S 15 20 8 11 1015.1 1015.0 0.0
29/12:00am 19.3 17.8 15.2 77 2.4 S 17 22 9 12 1015.2 1015.1 0.0
 
Date/Time
CDT
Temp
°C
App
Temp
°C
Dew
Point
Rel
Hum
%
Delta-T
°C
Wind Press
QNH
hPa
Press
MSL
hPa
Rain
since 9 am
mm
Dir
 
Spd
km/h
Gust
km/h
Spd
kts
Gust
kts
28/11:30pm 19.4 17.3 14.6 74 2.8 S 19 28 10 15 1015.2 1015.1 0.0
28/11:00pm 19.7 17.2 14.1 70 3.2 SSE 20 26 11 14 1015.2 1015.1 0.0
28/10:30pm 20.2 16.7 13.4 65 3.9 SSE 24 35 13 19 1015.0 1014.9 0.0
28/10:00pm 20.7 17.4 12.9 61 4.4 SSE 22 32 12 17 1014.9 1014.8 0.0
28/09:30pm 21.2 17.8 12.6 58 4.9 SSE 22 32 12 17 1014.6 1014.5 0.0
28/09:00pm 21.0 17.0 15.1 69 3.5 S 30 39 16 21 1014.3 1014.2 0.0
28/08:30pm 21.0 16.4 14.6 67 3.7 SSW 32 43 17 23 1014.0 1013.9 0.0
28/08:00pm 21.5 16.0 13.7 61 4.5 SSW 35 50 19 27 1013.8 1013.7 0.0
28/07:30pm 22.1 16.0 14.0 60 4.7 SSW 39 52 21 28 1013.6 1013.5 0.0
28/07:00pm 22.8 16.6 12.7 53 5.8 SSW 37 46 20 25 1013.3 1013.2 0.0
28/06:30pm 23.1 15.7 12.4 51 6.1 SSW 43 54 23 29 1013.2 1013.1 0.0
28/06:00pm 23.0 15.4 12.3 51 6.1 SSW 44 56 24 30 1013.2 1013.1 0.0
28/05:30pm 23.3 15.7 11.7 48 6.5 SSW 43 56 23 30 1013.4 1013.3 0.0
28/05:00pm 23.5 16.3 10.6 44 7.1 SSW 39 48 21 26 1013.8 1013.7 0.0
28/04:30pm 22.7 15.0 10.2 45 6.8 SSW 41 50 22 27 1013.9 1013.8 0.0
28/04:00pm 22.9 15.9 10.0 44 7.0 S 37 50 20 27 1014.1 1014.0 0.0
28/03:30pm 22.2 15.5 9.7 45 6.7 SSW 35 46 19 25 1014.4 1014.3 0.0
28/03:00pm 22.1 15.8 9.6 45 6.7 SSW 33 46 18 25 1014.8 1014.7 0.0
28/02:30pm 22.4 16.5 8.9 42 7.2 S 30 39 16 21 1015.4 1015.3 0.0
28/02:00pm 21.3 15.7 8.6 44 6.7 S 28 39 15 21 1015.7 1015.6 0.0
28/01:30pm 21.0 15.4 8.9 46 6.4 S 28 43 15 23 1016.2 1016.1 0.0
28/01:00pm 20.7 15.3 9.6 49 5.9 S 28 41 15 22 1016.6 1016.5 0.0
28/12:30pm 20.7 15.1 8.7 46 6.3 S 28 39 15 21 1016.8 1016.7 0.0
28/12:00pm 20.0 14.9 9.3 50 5.7 S 26 35 14 19 1017.0 1016.9 0.0
28/11:30am 19.2 14.4 8.8 51 5.4 S 24 33 13 18 1017.0 1016.9 0.0
28/11:00am 19.1 14.3 9.0 52 5.3 SSE 24 35 13 19 1017.1 1017.0 0.0
28/10:30am 19.0 14.4 9.8 55 4.9 SSE 24 35 13 19 1017.2 1017.1 0.0
28/10:00am 18.1 13.6 8.7 54 4.9 SSE 22 28 12 15 1017.3 1017.2 0.0
28/09:30am 17.8 13.0 8.9 56 4.6 SSE 24 35 13 19 1017.1 1017.0 0.0
28/09:00am 17.8 13.4 8.9 56 4.6 SSE 22 35 12 19 1016.9 1016.8 0.0
28/08:30am 17.4 12.7 9.1 58 4.3 SE 24 33 13 18 1016.5 1016.4 0.0
28/08:00am 16.9 12.0 8.6 58 4.3 SE 24 35 13 19 1016.0 1015.9 0.0
28/07:30am 16.4 12.5 8.6 60 4.0 SE 19 28 10 15 1015.6 1015.5 0.0
28/07:00am 15.8 11.9 8.8 63 3.6 SE 19 30 10 16 1015.4 1015.3 0.0
28/06:30am 15.5 12.2 9.4 67 3.1 SE 17 22 9 12 1015.1 1015.0 0.0
28/06:00am 15.8 12.0 9.9 68 3.1 SSE 20 24 11 13 1014.8 1014.7 0.0
28/05:30am 15.8 12.2 9.9 68 3.1 SE 19 28 10 15 1014.7 1014.6 0.0
28/05:00am 16.0 12.5 10.3 69 3.0 SSE 19 28 10 15 1014.8 1014.7 0.0
28/04:30am 16.2 12.5 10.3 68 3.1 SSE 20 28 11 15 1015.0 1014.9 0.0
28/04:00am 16.4 12.8 10.7 69 3.0 SSE 20 30 11 16 1015.0 1014.9 0.0
28/03:30am 16.6 12.7 10.7 68 3.1 SSE 22 32 12 17 1015.0 1014.9 0.0
28/03:00am 16.7 12.3 10.5 67 3.3 SSE 24 35 13 19 1015.1 1015.0 0.0
28/02:30am 16.9 12.2 10.5 66 3.4 SSE 26 33 14 18 1015.3 1015.2 0.0
28/02:00am 17.1 12.5 10.9 67 3.3 SSE 26 37 14 20 1015.6 1015.5 0.0
28/01:30am 17.4 12.8 11.0 66 3.4 SSE 26 35 14 19 1016.0 1015.9 0.0
28/01:00am 17.6 12.6 10.9 65 3.6 SSE 28 37 15 20 1016.1 1016.0 0.0
28/12:30am 17.7 13.0 10.6 63 3.8 SSE 26 37 14 20 1016.2 1016.1 0.0
28/12:00am 17.9 12.0 10.5 62 4.0 SSE 32 46 17 25 1016.5 1016.4 0.0
 
Date/Time
CDT
Temp
°C
App
Temp
°C
Dew
Point
Rel
Hum
%
Delta-T
°C
Wind Press
QNH
hPa
Press
MSL
hPa
Rain
since 9 am
mm
Dir
 
Spd
km/h
Gust
km/h
Spd
kts
Gust
kts
27/11:30pm 18.0 12.2 10.9 63 3.8 S 32 46 17 25 1016.4 1016.3 0.0
27/11:00pm 18.0 12.0 10.9 63 3.8 S 33 48 18 26 1016.3 1016.2 0.0
27/10:43pm 18.1 13.0 10.7 62 4.0 S 28 46 15 25 1016.3 1016.2 0.0
27/10:30pm 18.4 12.5 11.0 62 4.0 S 33 46 18 25 1016.3 1016.2 0.0
27/10:08pm 18.6 13.2 10.9 61 4.2 SSE 30 48 16 26 1016.3 1016.2 0.0
27/10:00pm 18.8 12.7 10.6 59 4.4 SSE 33 44 18 24 1016.2 1016.1 0.0
27/09:30pm 19.3 13.7 10.3 56 4.8 SSE 30 46 16 25 1015.9 1015.8 0.0
27/09:00pm 19.9 14.1 10.9 56 4.9 SSE 32 44 17 24 1015.5 1015.4 0.0
27/08:30pm 20.7 15.8 11.3 55 5.2 SSE 28 41 15 22 1015.0 1014.9 0.0
27/08:00pm 20.8 15.7 13.0 61 4.4 SSW 32 43 17 23 1014.7 1014.6 0.0
27/07:30pm 21.0 14.1 12.7 59 4.7 SSW 41 52 22 28 1014.3 1014.2 0.0
27/07:12pm 21.3 14.2 12.2 56 5.1 SSW 41 59 22 32 1014.2 1014.1 0.0
27/07:00pm 21.3 13.7 11.9 55 5.3 SSW 43 57 23 31 1014.2 1014.1 0.0
27/06:30pm 21.4 13.1 11.4 53 5.5 SSW 46 57 25 31 1014.1 1014.0 0.0
27/06:00pm 22.3 15.6 12.3 53 5.7 SSW 39 52 21 28 1013.9 1013.8 0.0
27/05:41pm 22.1 14.5 11.8 52 5.8 SSW 43 61 23 33 1013.8 1013.7 0.0
27/05:30pm 22.7 15.2 12.0 50 6.0 SSW 43 57 23 31 1013.9 1013.8 0.0
27/05:18pm 22.6 15.8 12.0 51 6.0 SSW 39 61 21 33 1013.8 1013.7 0.0
27/05:00pm 22.7 15.1 11.7 49 6.2 SSW 43 56 23 30 1013.7 1013.6 0.0
27/04:30pm 22.5 14.6 11.6 50 6.1 SSW 44 56 24 30 1013.8 1013.7 0.0
27/04:00pm 22.2 15.0 10.7 48 6.3 SSW 39 48 21 26 1014.3 1014.2 0.0
27/03:30pm 22.1 15.6 10.3 47 6.4 SSW 35 46 19 25 1014.5 1014.4 0.0
27/03:00pm 22.4 16.1 10.9 48 6.4 S 35 46 19 25 1014.9 1014.8 0.0
27/02:30pm 22.5 17.0 9.3 43 7.1 S 28 41 15 22 1015.4 1015.3 0.0
27/02:00pm 22.1 16.2 8.9 43 7.0 SSW 30 41 16 22 1015.5 1015.4 0.0
27/01:30pm 21.7 16.1 8.9 44 6.8 S 28 39 15 21 1015.7 1015.6 0.0
27/01:00pm 21.3 15.6 8.2 43 6.8 S 28 39 15 21 1016.1 1016.0 0.0
27/12:30pm 21.0 16.1 8.3 44 6.6 S 24 35 13 19 1016.4 1016.3 0.0
27/12:00pm 20.0 15.2 9.0 49 5.8 S 24 33 13 18 1016.8 1016.7 0.0
27/11:30am 20.0 15.6 9.0 49 5.8 SSE 22 30 12 16 1016.9 1016.8 0.0
27/11:00am 19.5 15.4 8.8 50 5.6 SSE 20 28 11 15 1017.2 1017.1 0.0
27/10:30am 18.6 14.0 9.7 56 4.7 SSE 24 33 13 18 1017.2 1017.1 0.0
27/10:00am 18.2 13.9 9.3 56 4.7 SSE 22 32 12 17 1017.1 1017.0 0.0
27/09:30am 17.7 12.9 8.8 56 4.6 SE 24 30 13 16 1017.2 1017.1 0.0
27/09:00am 17.5 13.0 8.6 56 4.6 SE 22 32 12 17 1017.0 1016.9 0.0
27/08:30am 17.2 12.7 8.6 57 4.4 SE 22 32 12 17 1017.0 1016.9 0.0
27/08:00am 16.6 12.2 8.8 60 4.0 SE 22 32 12 17 1016.9 1016.8 0.0
27/07:30am 16.0 11.9 8.7 62 3.7 SE 20 30 11 16 1016.7 1016.6 0.0
27/07:00am 15.1 11.6 8.8 66 3.2 SE 17 24 9 13 1016.5 1016.4 0.0
27/06:30am 15.1 11.0 8.6 65 3.3 SE 20 30 11 16 1016.1 1016.0 0.0
27/06:00am 15.3 11.4 8.5 64 3.4 SE 19 24 10 13 1015.8 1015.7 0.0
27/05:30am 15.5 12.0 8.7 64 3.5 SE 17 28 9 15 1015.7 1015.6 0.0
27/05:00am 15.6 12.2 9.3 66 3.2 SE 17 26 9 14 1015.7 1015.6 0.0
27/04:30am 15.9 12.1 9.1 64 3.5 SE 19 30 10 16 1015.6 1015.5 0.0
27/04:00am 16.1 11.6 8.6 61 3.8 SE 22 33 12 18 1015.6 1015.5 0.0
27/03:30am 16.2 12.3 9.4 64 3.5 SE 20 30 11 16 1015.6 1015.5 0.0
27/03:00am 16.7 12.8 9.6 63 3.7 SE 20 32 11 17 1015.6 1015.5 0.0
27/02:30am 17.0 13.1 9.4 61 4.0 SSE 20 32 11 17 1015.8 1015.7 0.0
27/02:00am 17.2 12.2 9.4 60 4.1 SSE 26 33 14 18 1015.9 1015.8 0.0
27/01:30am 17.4 12.3 9.3 59 4.2 SSE 26 35 14 19 1016.2 1016.1 0.0
27/01:00am 17.7 12.5 10.1 61 4.0 SSE 28 39 15 21 1016.4 1016.3 0.0
27/12:30am 18.0 13.6 10.4 61 4.1 SSE 24 35 13 19 1016.7 1016.6 0.0
27/12:00am 18.1 13.1 9.7 58 4.4 SSE 26 37 14 20 1016.8 1016.7 0.0
 
Date/Time
CDT
Temp
°C
App
Temp
°C
Dew
Point
Rel
Hum
%
Delta-T
°C
Wind Press
QNH
hPa
Press
MSL
hPa
Rain
since 9 am
mm
Dir
 
Spd
km/h
Gust
km/h
Spd
kts
Gust
kts
26/11:30pm 18.2 13.6 9.8 58 4.4 SSE 24 35 13 19 1016.8 1016.7 0.0
26/11:00pm 18.5 13.9 9.6 56 4.7 SSE 24 37 13 20 1016.8 1016.7 0.0
26/10:30pm 18.8 14.3 8.7 52 5.2 SSE 22 35 12 19 1016.7 1016.6 0.0
26/10:00pm 19.0 13.8 10.3 57 4.7 S 28 35 15 19 1016.7 1016.6 0.0
26/09:30pm 18.9 13.3 10.2 57 4.6 S 30 41 16 22 1016.5 1016.4 0.0
26/09:00pm 19.0 13.0 10.0 56 4.8 S 32 39 17 21 1016.3 1016.2 0.0
26/08:30pm 19.1 12.5 9.9 55 4.9 S 35 48 19 26 1016.0 1015.9 0.0
26/08:00pm 19.6 12.6 10.0 54 5.1 SSW 37 46 20 25 1015.7 1015.6 0.0
26/07:30pm 20.1 13.5 9.9 52 5.5 SSW 35 46 19 25 1015.5 1015.4 0.0
26/07:00pm 20.6 13.3 10.1 51 5.7 SSW 39 50 21 27 1015.3 1015.2 0.0
26/06:30pm 21.5 14.3 10.6 50 6.0 S 39 50 21 27 1015.1 1015.0 0.0
26/06:00pm 21.4 14.8 9.9 48 6.2 S 35 46 19 25 1014.9 1014.8 0.0
26/05:30pm 21.5 15.0 10.3 49 6.1 S 35 44 19 24 1014.8 1014.7 0.0
26/05:00pm 21.5 15.0 10.3 49 6.1 S 35 48 19 26 1015.1 1015.0 0.0
26/04:30pm 21.9 15.9 10.7 49 6.1 S 33 44 18 24 1015.1 1015.0 0.0
26/04:00pm 21.2 15.4 10.7 51 5.7 S 32 43 17 23 1015.4 1015.3 0.0
26/03:30pm 21.8 17.0 11.5 52 5.7 S 28 39 15 21 1015.8 1015.7 0.0
26/03:00pm 21.4 16.5 9.9 48 6.2 SSE 26 37 14 20 1016.0 1015.9 0.0
26/02:30pm 21.5 17.5 10.6 50 6.0 SSE 22 32 12 17 1016.1 1016.0 0.0
26/02:00pm 20.9 15.9 9.5 48 6.1 S 26 39 14 21 1016.4 1016.3 0.0
26/01:30pm 22.0 17.2 8.9 43 7.0 S 24 41 13 22 1016.5 1016.4 0.0
26/01:00pm 21.6 17.3 9.2 45 6.6 SSE 22 35 12 19 1016.8 1016.7 0.0
26/12:30pm 20.9 16.8 8.5 45 6.5 SSE 20 32 11 17 1017.0 1016.9 0.0
26/12:00pm 20.2 15.4 8.8 48 6.0 S 24 37 13 20 1017.2 1017.1 0.0
26/11:30am 19.7 15.5 8.1 47 6.0 SSE 20 28 11 15 1017.3 1017.2 0.0
26/11:00am 19.4 15.3 8.7 50 5.6 SSE 20 30 11 16 1017.5 1017.4 0.0
26/10:30am 18.7 14.8 9.5 55 4.8 SE 20 28 11 15 1017.6 1017.5 0.0
26/10:00am 18.4 13.6 8.7 53 5.0 SE 24 35 13 19 1017.8 1017.7 0.0
26/09:30am 18.1 13.3 8.7 54 4.9 SE 24 32 13 17 1017.9 1017.8 0.0
26/09:00am 18.1 13.4 7.8 51 5.2 SE 22 30 12 16 1017.8 1017.7 0.0
26/08:30am 18.0 13.7 7.7 51 5.2 ESE 20 30 11 16 1017.4 1017.3 0.0
26/08:00am 17.6 13.2 7.6 52 5.0 SE 20 28 11 15 1017.2 1017.1 0.0
26/07:30am 17.0 13.2 7.4 53 4.8 SE 17 24 9 13 1016.9 1016.8 0.0
26/07:00am 16.2 12.8 7.7 57 4.3 SE 15 22 8 12 1016.6 1016.5 0.0
26/06:30am 15.9 12.2 7.9 59 4.0 SE 17 24 9 13 1016.4 1016.3 0.0
26/06:00am 16.1 12.3 7.6 57 4.2 ESE 17 22 9 12 1016.2 1016.1 0.0
26/05:30am 16.2 12.6 8.2 59 4.0 ESE 17 24 9 13 1016.0 1015.9 0.0
26/05:00am 16.6 12.6 8.1 57 4.3 SE 19 26 10 14 1015.8 1015.7 0.0

Other Formats:

Comma delimited format used in spreadsheet applications
http://www.bom.gov.au/fwo/IDS60801/IDS60801.95664.axf

JavaScript Object Notation format (JSON) in row-major order
http://www.bom.gov.au/fwo/IDS60801/IDS60801.95664.json